createdAt,value
2018-05-14T08:33:38.755Z,39.37
2018-05-14T08:34:38.665Z,39.09
2018-05-14T08:36:31.744Z,39.18
2018-05-14T08:37:31.740Z,39.28
2018-05-14T08:39:24.837Z,39.29
2018-05-14T08:40:24.847Z,39.37
2018-05-14T08:42:17.962Z,39.37
2018-05-14T08:43:17.952Z,39.09
2018-05-14T08:45:11.343Z,39.09
2018-05-14T08:46:11.047Z,39.11
2018-05-14T08:47:11.070Z,39.29
2018-05-14T08:48:11.099Z,39.11
2018-05-14T08:49:11.124Z,38.81
2018-05-14T08:50:11.140Z,38.23
2018-05-14T08:51:11.166Z,38.13
2018-05-14T08:52:11.199Z,38.23
2018-05-14T08:53:11.228Z,38.43
2018-05-14T08:54:11.259Z,38.43
2018-05-14T08:55:11.269Z,38.23
2018-05-14T08:56:11.289Z,38.43
2018-05-14T08:57:11.313Z,38.33
2018-05-14T08:58:11.354Z,38.33
2018-05-14T08:59:11.367Z,38.53
2018-05-14T09:00:11.435Z,38.15
2018-05-14T09:01:11.529Z,38.13
2018-05-14T09:02:11.441Z,38.06
2018-05-14T09:03:11.481Z,37.94
2018-05-14T09:04:11.493Z,37.38
2018-05-14T09:05:11.518Z,37.19
2018-05-14T09:06:11.540Z,36.70
2018-05-14T09:07:11.619Z,36.80
2018-05-14T09:08:11.591Z,36.51
2018-05-14T09:09:11.616Z,36.80
2018-05-14T09:10:11.690Z,36.51
2018-05-14T09:11:11.663Z,36.90
2018-05-14T09:12:11.693Z,36.99
2018-05-14T09:13:11.729Z,36.70
2018-05-14T09:14:11.773Z,36.70
2018-05-14T09:15:11.866Z,36.80
2018-05-14T09:16:11.809Z,36.70
2018-05-14T09:17:11.821Z,36.90
2018-05-14T09:18:11.845Z,36.70
2018-05-14T09:19:11.874Z,36.60
2018-05-14T09:20:11.900Z,36.51
2018-05-14T09:21:11.928Z,36.80
2018-05-14T09:22:12.004Z,36.70
2018-05-14T09:23:11.987Z,36.62
2018-05-14T09:24:12.001Z,35.73
2018-05-14T09:25:12.041Z,35.44
2018-05-14T09:26:12.055Z,34.97
2018-05-14T09:27:12.072Z,34.88
2018-05-14T09:28:12.107Z,34.86
2018-05-14T09:29:12.146Z,34.96
2018-05-14T09:30:12.238Z,35.17
2018-05-14T09:31:12.188Z,36.04
2018-05-14T09:32:12.213Z,36.33
2018-05-14T09:33:12.255Z,36.51
2018-05-14T09:34:12.264Z,35.64
2018-05-14T09:35:12.286Z,35.36
2018-05-14T09:36:12.313Z,34.67
2018-05-14T09:37:12.372Z,34.57
2018-05-14T09:38:12.382Z,33.72
2018-05-14T09:39:12.407Z,33.81
2018-05-14T09:40:12.434Z,33.81
2018-05-14T09:41:12.451Z,33.72
2018-05-14T09:42:12.506Z,34.30
2018-05-14T09:43:12.513Z,34.01
2018-05-14T09:44:12.549Z,33.91
2018-05-14T09:45:12.554Z,34.01
2018-05-14T09:46:12.584Z,33.91
2018-05-14T09:47:12.621Z,33.91
2018-05-14T09:48:12.626Z,33.91
2018-05-14T09:49:12.681Z,33.91
2018-05-14T09:50:12.690Z,34.11
2018-05-14T09:51:12.704Z,33.33
2018-05-14T09:52:12.773Z,33.42
2018-05-14T09:53:12.793Z,33.72
2018-05-14T09:54:13.446Z,33.91
2018-05-14T09:55:12.831Z,33.72
2018-05-14T09:56:12.841Z,33.81
2018-05-14T09:57:12.950Z,33.33
2018-05-14T09:58:12.882Z,33.23
2018-05-14T09:59:12.988Z,32.84
2018-05-14T10:00:12.957Z,32.94
2018-05-14T10:01:12.968Z,33.04
2018-05-14T10:02:13.018Z,32.56
2018-05-14T10:03:13.039Z,32.36
2018-05-14T10:04:13.943Z,32.26
2018-05-14T10:05:13.103Z,32.17
2018-05-14T10:06:13.101Z,32.26
2018-05-14T10:07:13.117Z,32.07
2018-05-14T10:08:13.174Z,32.07
2018-05-14T10:09:13.185Z,32.07
2018-05-14T10:10:13.199Z,31.78
2018-05-14T10:11:13.272Z,31.68
2018-05-14T10:12:13.254Z,31.59
2018-05-14T10:13:13.275Z,31.39
2018-05-14T10:14:13.312Z,31.39
2018-05-14T10:15:13.334Z,31.29
2018-05-14T10:16:13.629Z,31.68
2018-05-14T10:17:13.427Z,31.78
2018-05-14T10:18:13.407Z,31.97
2018-05-14T10:19:13.562Z,32.07
2018-05-14T10:20:13.471Z,31.87
2018-05-14T10:21:13.496Z,32.07
2018-05-14T10:22:13.552Z,31.97
2018-05-14T10:23:13.565Z,32.07
2018-05-14T10:24:13.569Z,31.97
2018-05-14T10:25:13.600Z,31.97
2018-05-14T10:26:13.623Z,31.78
2018-05-14T10:27:13.652Z,31.78
2018-05-14T10:28:13.672Z,31.78
2018-05-14T10:29:13.707Z,31.78
2018-05-14T10:30:13.729Z,31.49
2018-05-14T10:31:13.756Z,31.68
2018-05-14T10:32:13.777Z,31.87
2018-05-14T10:33:13.804Z,31.59
2018-05-14T10:34:13.837Z,31.39
2018-05-14T10:35:13.857Z,31.10
2018-05-14T10:36:13.924Z,31.20
2018-05-14T10:37:13.906Z,31.20
2018-05-14T10:38:13.937Z,31.10
2018-05-14T10:39:13.962Z,31.10
2018-05-14T10:40:13.990Z,31.10
2018-05-14T10:41:14.018Z,31.01
2018-05-14T10:42:14.039Z,30.71
2018-05-14T10:43:14.066Z,31.10
2018-05-14T10:44:14.093Z,30.42
2018-05-14T10:45:14.119Z,30.23
2018-05-14T10:46:14.146Z,30.42
2018-05-14T10:47:14.198Z,30.71
2018-05-14T10:48:14.196Z,30.04
2018-05-14T10:49:14.226Z,30.13
2018-05-14T10:50:14.266Z,29.84
2018-05-14T10:51:14.278Z,29.55
2018-05-14T10:52:14.306Z,29.74
2018-05-14T10:53:14.329Z,29.74
2018-05-14T10:54:14.355Z,29.74
2018-05-14T10:55:14.429Z,29.74
2018-05-14T10:56:14.412Z,29.74
2018-05-14T10:57:14.442Z,29.76
2018-05-14T10:58:14.459Z,29.94
2018-05-14T10:59:14.484Z,29.95
2018-05-14T11:00:14.517Z,30.05
2018-05-14T11:01:14.552Z,30.24
2018-05-14T11:02:14.615Z,29.95
2018-05-14T11:03:14.592Z,29.95
2018-05-14T11:04:14.619Z,29.76
2018-05-14T11:05:14.645Z,29.85
2018-05-14T11:06:14.671Z,29.66
2018-05-14T11:07:14.697Z,29.66
2018-05-14T11:08:14.723Z,29.76
2018-05-14T11:09:14.751Z,29.85
2018-05-14T11:10:14.778Z,28.79
2018-05-14T11:11:14.802Z,28.50
2018-05-14T11:12:14.827Z,28.40
2018-05-14T11:13:14.854Z,28.40
2018-05-14T11:14:14.881Z,28.40
2018-05-14T11:15:14.922Z,28.40
2018-05-14T11:16:14.941Z,28.30
2018-05-14T11:17:14.959Z,27.53
2018-05-14T11:18:15.003Z,26.85
2018-05-14T11:19:15.039Z,27.14
2018-05-14T11:20:15.039Z,27.33
2018-05-14T11:21:15.063Z,27.33
2018-05-14T11:22:15.097Z,28.02
2018-05-14T11:23:15.119Z,28.02
2018-05-14T11:24:15.152Z,28.20
2018-05-14T11:25:15.172Z,28.30
2018-05-14T11:26:15.224Z,28.69
2018-05-14T11:27:15.218Z,28.50
2018-05-14T11:28:15.256Z,28.50
2018-05-14T11:29:15.284Z,28.50
2018-05-14T11:30:15.301Z,28.59
2018-05-14T11:31:15.346Z,28.98
2018-05-14T11:32:15.352Z,28.89
2018-05-14T11:33:15.380Z,28.98
2018-05-14T11:34:15.409Z,28.79
2018-05-14T11:35:15.476Z,28.79
2018-05-14T11:36:15.474Z,28.79
2018-05-14T11:37:15.505Z,28.98
2018-05-14T11:38:15.539Z,28.89
2018-05-14T11:39:15.543Z,28.89
2018-05-14T11:40:15.564Z,28.89
2018-05-14T11:41:15.594Z,28.98
2018-05-14T11:42:15.616Z,28.89
2018-05-14T11:43:15.642Z,28.98
2018-05-14T11:44:15.670Z,28.98
2018-05-14T11:45:15.696Z,28.98
2018-05-14T11:46:15.732Z,29.76
2018-05-14T11:47:15.746Z,29.27
2018-05-14T11:48:15.775Z,29.46
2018-05-14T11:49:15.799Z,28.97
2018-05-14T11:50:15.824Z,29.74
2018-05-14T11:51:15.858Z,29.16
2018-05-14T11:52:15.879Z,29.16
2018-05-14T11:53:15.906Z,29.84
2018-05-14T11:54:15.932Z,29.64
2018-05-14T11:55:15.961Z,29.94
2018-05-14T11:56:15.986Z,29.74
2018-05-14T11:57:16.013Z,29.74
2018-05-14T11:58:16.042Z,29.74
2018-05-14T11:59:16.063Z,29.74
2018-05-14T12:00:16.113Z,30.24
2018-05-14T12:01:16.117Z,29.76
2018-05-14T12:02:16.143Z,29.57
2018-05-14T12:03:16.180Z,29.76
2018-05-14T12:04:16.201Z,29.17
2018-05-14T12:05:16.226Z,29.08
2018-05-14T12:06:16.248Z,28.87
2018-05-14T12:07:16.272Z,28.87
2018-05-14T12:08:16.325Z,29.06
2018-05-14T12:09:16.328Z,29.55
2018-05-14T12:10:16.356Z,29.27
2018-05-14T12:11:16.386Z,29.36
2018-05-14T12:12:16.453Z,28.87
2018-05-14T12:13:16.460Z,28.97
2018-05-14T12:14:16.465Z,28.98
2018-05-14T12:15:16.500Z,28.68
2018-05-14T12:16:16.536Z,29.06
2018-05-14T12:17:16.581Z,29.17
2018-05-14T12:18:16.577Z,29.55
2018-05-14T12:19:16.587Z,29.76
2018-05-14T12:20:16.644Z,29.76
2018-05-14T12:21:16.658Z,29.85
2018-05-14T12:22:16.666Z,29.85
2018-05-14T12:23:16.699Z,30.15
2018-05-14T12:24:16.716Z,30.15
2018-05-14T12:25:16.745Z,29.95
2018-05-14T12:26:16.803Z,30.05
2018-05-14T12:27:16.826Z,30.15
2018-05-14T12:28:16.844Z,29.95
2018-05-14T12:29:16.866Z,29.66
2018-05-14T12:30:16.875Z,29.57
2018-05-14T12:31:16.920Z,29.76
2018-05-14T12:32:16.962Z,29.76
2018-05-14T12:33:16.954Z,29.76
2018-05-14T12:34:16.999Z,30.63
2018-05-14T12:35:17.007Z,29.85
2018-05-14T12:36:17.042Z,29.76
2018-05-14T12:37:17.059Z,29.57
2018-05-14T12:38:17.084Z,29.76
2018-05-14T12:39:17.112Z,29.57
2018-05-14T12:40:17.183Z,29.76
2018-05-14T12:41:17.166Z,29.76
2018-05-14T12:42:17.196Z,29.95
2018-05-14T12:43:17.226Z,29.95
2018-05-14T12:44:17.247Z,30.05
2018-05-14T12:45:17.285Z,30.05
2018-05-14T12:46:17.359Z,29.76
2018-05-14T12:47:17.357Z,29.85
2018-05-14T12:48:17.356Z,30.07
2018-05-14T12:49:17.384Z,29.68
2018-05-14T12:50:17.415Z,29.77
2018-05-14T12:51:17.496Z,29.87
2018-05-14T12:52:17.466Z,29.68
2018-05-14T12:53:17.517Z,29.77
2018-05-14T12:54:17.529Z,29.58
2018-05-14T12:55:17.554Z,29.10
2018-05-14T12:56:17.571Z,28.90
2018-05-14T12:57:17.624Z,28.70
2018-05-14T12:58:17.613Z,28.51
2018-05-14T12:59:17.642Z,28.51
2018-05-14T13:00:17.670Z,28.90
2018-05-14T13:01:17.700Z,29.00
2018-05-14T13:02:17.731Z,28.90
2018-05-14T13:03:17.787Z,29.19
2018-05-14T13:04:17.774Z,29.48
2018-05-14T13:05:17.810Z,29.68
2018-05-14T13:06:17.833Z,29.77
2018-05-14T13:07:17.871Z,29.60
2018-05-14T13:08:17.882Z,29.87
2018-05-14T13:09:17.907Z,29.19
2018-05-14T13:10:17.935Z,28.81
2018-05-14T13:11:17.958Z,28.81
2018-05-14T13:12:17.988Z,28.53
2018-05-14T13:13:18.023Z,28.14
2018-05-14T13:14:18.081Z,28.14
2018-05-14T13:15:18.083Z,28.23
2018-05-14T13:16:18.111Z,28.53
2018-05-14T13:17:18.130Z,28.63
2018-05-14T13:18:18.155Z,28.53
2018-05-14T13:19:18.225Z,29.11
2018-05-14T13:20:18.199Z,28.72
2018-05-14T13:21:18.229Z,29.01
2018-05-14T13:22:18.256Z,29.40
2018-05-14T13:23:18.281Z,29.40
2018-05-14T13:24:18.307Z,29.88
2018-05-14T13:25:18.335Z,29.21
2018-05-14T13:26:18.466Z,29.11
2018-05-14T13:27:18.389Z,29.01
2018-05-14T13:28:18.419Z,28.91
2018-05-14T13:29:18.440Z,29.01
2018-05-14T13:30:18.468Z,29.21
2018-05-14T13:31:18.494Z,29.40
2018-05-14T13:32:18.525Z,29.79
2018-05-14T13:33:18.547Z,29.88
2018-05-14T13:34:18.569Z,29.71
2018-05-14T13:35:18.602Z,29.69
2018-05-14T13:36:18.633Z,29.69
2018-05-14T13:37:18.667Z,29.88
2018-05-14T13:38:18.686Z,29.88
2018-05-14T13:39:18.713Z,30.27
2018-05-14T13:40:18.736Z,30.57
2018-05-14T13:41:18.757Z,30.57
2018-05-14T13:42:18.791Z,30.57
2018-05-14T13:43:18.820Z,30.57
2018-05-14T13:44:18.860Z,30.57
2018-05-14T13:45:18.870Z,30.66
